sensor_id;sensor_type;location;lat;lon;timestamp;temperature;humidity
75130;HTU21D;63703;44.716;37.846;2023-04-24T00:01:03;11.14;70.85
75130;HTU21D;63703;44.716;37.846;2023-04-24T00:03:32;11.12;70.73
75130;HTU21D;63703;44.716;37.846;2023-04-24T00:05:59;11.11;70.63
75130;HTU21D;63703;44.716;37.846;2023-04-24T00:08:26;11.11;70.42
75130;HTU21D;63703;44.716;37.846;2023-04-24T00:10:52;11.10;70.35
75130;HTU21D;63703;44.716;37.846;2023-04-24T00:13:18;11.08;70.41
75130;HTU21D;63703;44.716;37.846;2023-04-24T00:15:44;11.04;70.53
75130;HTU21D;63703;44.716;37.846;2023-04-24T00:18:10;11.02;70.69
75130;HTU21D;63703;44.716;37.846;2023-04-24T00:20:36;10.99;70.84
75130;HTU21D;63703;44.716;37.846;2023-04-24T00:23:02;10.95;71.00
75130;HTU21D;63703;44.716;37.846;2023-04-24T00:25:28;10.94;71.14
75130;HTU21D;63703;44.716;37.846;2023-04-24T00:27:53;10.94;71.30
75130;HTU21D;63703;44.716;37.846;2023-04-24T00:30:20;10.93;71.38
75130;HTU21D;63703;44.716;37.846;2023-04-24T00:32:46;10.94;71.51
75130;HTU21D;63703;44.716;37.846;2023-04-24T00:35:12;10.92;71.64
75130;HTU21D;63703;44.716;37.846;2023-04-24T00:37:38;10.89;71.77
75130;HTU21D;63703;44.716;37.846;2023-04-24T00:40:04;10.89;71.87
75130;HTU21D;63703;44.716;37.846;2023-04-24T00:42:30;10.88;71.92
75130;HTU21D;63703;44.716;37.846;2023-04-24T00:44:57;10.88;71.98
75130;HTU21D;63703;44.716;37.846;2023-04-24T00:47:23;10.87;72.05
75130;HTU21D;63703;44.716;37.846;2023-04-24T00:49:49;10.88;72.04
75130;HTU21D;63703;44.716;37.846;2023-04-24T00:52:15;10.87;72.09
75130;HTU21D;63703;44.716;37.846;2023-04-24T00:54:46;10.88;72.13
75130;HTU21D;63703;44.716;37.846;2023-04-24T00:57:13;10.87;72.12
75130;HTU21D;63703;44.716;37.846;2023-04-24T00:59:43;10.88;72.01
75130;HTU21D;63703;44.716;37.846;2023-04-24T01:02:11;10.89;72.02
75130;HTU21D;63703;44.716;37.846;2023-04-24T01:04:37;10.86;72.00
75130;HTU21D;63703;44.716;37.846;2023-04-24T01:07:04;10.88;71.92
75130;HTU21D;63703;44.716;37.846;2023-04-24T01:09:38;10.88;71.87
75130;HTU21D;63703;44.716;37.846;2023-04-24T01:12:05;10.90;71.77
75130;HTU21D;63703;44.716;37.846;2023-04-24T01:14:31;10.89;71.72
75130;HTU21D;63703;44.716;37.846;2023-04-24T01:16:57;10.89;71.68
75130;HTU21D;63703;44.716;37.846;2023-04-24T01:19:23;10.87;71.65
75130;HTU21D;63703;44.716;37.846;2023-04-24T01:21:50;10.90;71.56
75130;HTU21D;63703;44.716;37.846;2023-04-24T01:24:19;10.87;71.51
75130;HTU21D;63703;44.716;37.846;2023-04-24T01:26:46;10.87;71.46
75130;HTU21D;63703;44.716;37.846;2023-04-24T01:29:12;10.89;71.43
75130;HTU21D;63703;44.716;37.846;2023-04-24T01:31:39;10.90;71.37
75130;HTU21D;63703;44.716;37.846;2023-04-24T01:34:06;10.92;71.37
75130;HTU21D;63703;44.716;37.846;2023-04-24T01:36:33;10.95;71.32
75130;HTU21D;63703;44.716;37.846;2023-04-24T01:39:00;10.95;71.32
75130;HTU21D;63703;44.716;37.846;2023-04-24T01:41:27;10.94;71.35
75130;HTU21D;63703;44.716;37.846;2023-04-24T01:43:54;10.96;71.36
75130;HTU21D;63703;44.716;37.846;2023-04-24T01:46:20;10.96;71.45
75130;HTU21D;63703;44.716;37.846;2023-04-24T01:48:46;10.98;71.45
75130;HTU21D;63703;44.716;37.846;2023-04-24T01:51:12;11.02;71.50
75130;HTU21D;63703;44.716;37.846;2023-04-24T01:53:38;11.07;71.51
75130;HTU21D;63703;44.716;37.846;2023-04-24T01:56:04;11.09;71.57
75130;HTU21D;63703;44.716;37.846;2023-04-24T01:58:31;11.11;71.57
75130;HTU21D;63703;44.716;37.846;2023-04-24T02:00:57;11.14;71.57
75130;HTU21D;63703;44.716;37.846;2023-04-24T02:03:25;11.18;71.54
75130;HTU21D;63703;44.716;37.846;2023-04-24T02:05:52;11.16;71.53
75130;HTU21D;63703;44.716;37.846;2023-04-24T02:08:18;11.16;71.56
75130;HTU21D;63703;44.716;37.846;2023-04-24T02:10:44;11.14;71.61
75130;HTU21D;63703;44.716;37.846;2023-04-24T02:13:10;11.15;71.67
75130;HTU21D;63703;44.716;37.846;2023-04-24T02:15:36;11.17;71.70
75130;HTU21D;63703;44.716;37.846;2023-04-24T02:18:02;11.19;71.72
75130;HTU21D;63703;44.716;37.846;2023-04-24T02:20:31;11.20;71.78
75130;HTU21D;63703;44.716;37.846;2023-04-24T02:22:59;11.20;71.80
75130;HTU21D;63703;44.716;37.846;2023-04-24T02:25:25;11.20;71.90
75130;HTU21D;63703;44.716;37.846;2023-04-24T02:27:54;11.22;71.93
75130;HTU21D;63703;44.716;37.846;2023-04-24T02:30:20;11.25;71.99
75130;HTU21D;63703;44.716;37.846;2023-04-24T02:32:46;11.27;72.04
75130;HTU21D;63703;44.716;37.846;2023-04-24T02:35:12;11.32;72.09
75130;HTU21D;63703;44.716;37.846;2023-04-24T02:37:38;11.37;72.13
75130;HTU21D;63703;44.716;37.846;2023-04-24T02:40:05;11.39;72.16
75130;HTU21D;63703;44.716;37.846;2023-04-24T02:42:31;11.41;72.19
75130;HTU21D;63703;44.716;37.846;2023-04-24T02:44:57;11.43;72.21
75130;HTU21D;63703;44.716;37.846;2023-04-24T02:47:24;11.46;72.22
75130;HTU21D;63703;44.716;37.846;2023-04-24T02:49:50;11.48;72.25
75130;HTU21D;63703;44.716;37.846;2023-04-24T02:52:16;11.55;72.26
75130;HTU21D;63703;44.716;37.846;2023-04-24T02:54:42;11.57;72.26
75130;HTU21D;63703;44.716;37.846;2023-04-24T02:57:08;11.60;72.25
75130;HTU21D;63703;44.716;37.846;2023-04-24T02:59:36;11.61;72.23
75130;HTU21D;63703;44.716;37.846;2023-04-24T03:02:02;11.63;72.24
75130;HTU21D;63703;44.716;37.846;2023-04-24T03:04:28;11.68;72.24
75130;HTU21D;63703;44.716;37.846;2023-04-24T03:06:53;11.69;72.22
75130;HTU21D;63703;44.716;37.846;2023-04-24T03:09:21;11.71;72.22
75130;HTU21D;63703;44.716;37.846;2023-04-24T03:11:47;11.72;72.22
75130;HTU21D;63703;44.716;37.846;2023-04-24T03:14:14;11.76;72.25
75130;HTU21D;63703;44.716;37.846;2023-04-24T03:16:40;11.83;72.22
75130;HTU21D;63703;44.716;37.846;2023-04-24T03:19:06;11.84;72.19
75130;HTU21D;63703;44.716;37.846;2023-04-24T03:21:37;11.86;72.19
75130;HTU21D;63703;44.716;37.846;2023-04-24T03:24:09;11.90;72.13
75130;HTU21D;63703;44.716;37.846;2023-04-24T03:26:36;11.93;72.13
75130;HTU21D;63703;44.716;37.846;2023-04-24T03:29:25;11.98;72.09
75130;HTU21D;63703;44.716;37.846;2023-04-24T03:31:51;12.03;72.06
75130;HTU21D;63703;44.716;37.846;2023-04-24T03:34:17;12.10;72.00
75130;HTU21D;63703;44.716;37.846;2023-04-24T03:36:44;12.17;71.93
75130;HTU21D;63703;44.716;37.846;2023-04-24T03:39:09;12.25;71.86
75130;HTU21D;63703;44.716;37.846;2023-04-24T03:41:38;12.29;71.79
75130;HTU21D;63703;44.716;37.846;2023-04-24T03:44:17;12.35;71.67
75130;HTU21D;63703;44.716;37.846;2023-04-24T03:46:44;12.37;71.64
75130;HTU21D;63703;44.716;37.846;2023-04-24T03:49:10;12.43;71.52
75130;HTU21D;63703;44.716;37.846;2023-04-24T03:51:40;12.47;71.39
75130;HTU21D;63703;44.716;37.846;2023-04-24T03:54:16;12.47;71.34
75130;HTU21D;63703;44.716;37.846;2023-04-24T03:56:44;12.49;71.23
75130;HTU21D;63703;44.716;37.846;2023-04-24T03:59:10;12.47;71.24
75130;HTU21D;63703;44.716;37.846;2023-04-24T04:01:37;12.47;71.19
75130;HTU21D;63703;44.716;37.846;2023-04-24T04:04:14;12.48;71.15
75130;HTU21D;63703;44.716;37.846;2023-04-24T04:06:43;12.50;71.18
75130;HTU21D;63703;44.716;37.846;2023-04-24T04:09:10;12.52;71.15
75130;HTU21D;63703;44.716;37.846;2023-04-24T04:11:36;12.58;71.11
75130;HTU21D;63703;44.716;37.846;2023-04-24T04:14:03;12.64;71.05
75130;HTU21D;63703;44.716;37.846;2023-04-24T04:16:30;12.72;70.97
75130;HTU21D;63703;44.716;37.846;2023-04-24T04:19:02;12.78;70.88
75130;HTU21D;63703;44.716;37.846;2023-04-24T04:21:29;12.84;70.80
75130;HTU21D;63703;44.716;37.846;2023-04-24T04:24:06;12.92;70.67
75130;HTU21D;63703;44.716;37.846;2023-04-24T04:26:37;13.01;70.46
75130;HTU21D;63703;44.716;37.846;2023-04-24T04:29:06;13.06;70.58
75130;HTU21D;63703;44.716;37.846;2023-04-24T04:31:35;13.10;70.48
75130;HTU21D;63703;44.716;37.846;2023-04-24T04:34:06;13.10;70.39
75130;HTU21D;63703;44.716;37.846;2023-04-24T04:36:34;13.14;70.33
75130;HTU21D;63703;44.716;37.846;2023-04-24T04:39:13;13.22;70.07
75130;HTU21D;63703;44.716;37.846;2023-04-24T04:41:58;13.31;69.87
75130;HTU21D;63703;44.716;37.846;2023-04-24T04:44:29;13.36;69.81
75130;HTU21D;63703;44.716;37.846;2023-04-24T04:46:59;13.43;69.74
75130;HTU21D;63703;44.716;37.846;2023-04-24T04:49:35;13.47;69.52
75130;HTU21D;63703;44.716;37.846;2023-04-24T04:52:02;13.52;69.42
75130;HTU21D;63703;44.716;37.846;2023-04-24T04:54:28;13.61;69.20
75130;HTU21D;63703;44.716;37.846;2023-04-24T04:56:56;13.64;69.02
75130;HTU21D;63703;44.716;37.846;2023-04-24T04:59:23;13.70;68.87
75130;HTU21D;63703;44.716;37.846;2023-04-24T05:01:55;13.74;68.79
75130;HTU21D;63703;44.716;37.846;2023-04-24T05:04:24;13.78;68.65
75130;HTU21D;63703;44.716;37.846;2023-04-24T05:06:51;13.81;68.49
75130;HTU21D;63703;44.716;37.846;2023-04-24T05:09:18;13.82;68.46
75130;HTU21D;63703;44.716;37.846;2023-04-24T05:11:52;13.86;68.17
75130;HTU21D;63703;44.716;37.846;2023-04-24T05:14:20;13.86;68.22
75130;HTU21D;63703;44.716;37.846;2023-04-24T05:16:46;13.88;68.09
75130;HTU21D;63703;44.716;37.846;2023-04-24T05:19:14;13.88;67.99
75130;HTU21D;63703;44.716;37.846;2023-04-24T05:21:41;13.86;68.03
75130;HTU21D;63703;44.716;37.846;2023-04-24T05:24:08;13.88;68.05
75130;HTU21D;63703;44.716;37.846;2023-04-24T05:27:00;13.85;67.98
75130;HTU21D;63703;44.716;37.846;2023-04-24T05:29:34;13.86;68.08
75130;HTU21D;63703;44.716;37.846;2023-04-24T05:32:00;13.90;68.03
75130;HTU21D;63703;44.716;37.846;2023-04-24T05:34:28;13.92;68.02
75130;HTU21D;63703;44.716;37.846;2023-04-24T05:36:58;13.91;68.01
75130;HTU21D;63703;44.716;37.846;2023-04-24T05:39:25;13.89;68.03
75130;HTU21D;63703;44.716;37.846;2023-04-24T05:41:51;13.84;68.01
75130;HTU21D;63703;44.716;37.846;2023-04-24T05:44:17;13.78;68.14
75130;HTU21D;63703;44.716;37.846;2023-04-24T05:46:43;13.76;68.21
75130;HTU21D;63703;44.716;37.846;2023-04-24T05:49:10;13.70;68.26
75130;HTU21D;63703;44.716;37.846;2023-04-24T05:51:37;13.64;68.42
75130;HTU21D;63703;44.716;37.846;2023-04-24T05:54:03;13.60;68.60
75130;HTU21D;63703;44.716;37.846;2023-04-24T05:56:30;13.52;68.75
75130;HTU21D;63703;44.716;37.846;2023-04-24T05:58:57;13.46;68.84
75130;HTU21D;63703;44.716;37.846;2023-04-24T06:01:23;13.38;69.03
75130;HTU21D;63703;44.716;37.846;2023-04-24T06:03:58;13.31;69.26
75130;HTU21D;63703;44.716;37.846;2023-04-24T06:06:25;13.29;69.37
75130;HTU21D;63703;44.716;37.846;2023-04-24T06:08:52;13.27;69.47
75130;HTU21D;63703;44.716;37.846;2023-04-24T06:11:18;13.29;69.54
75130;HTU21D;63703;44.716;37.846;2023-04-24T06:13:44;13.27;69.58
75130;HTU21D;63703;44.716;37.846;2023-04-24T06:16:29;13.24;69.73
75130;HTU21D;63703;44.716;37.846;2023-04-24T06:19:02;13.20;69.85
75130;HTU21D;63703;44.716;37.846;2023-04-24T06:21:29;13.17;69.98
75130;HTU21D;63703;44.716;37.846;2023-04-24T06:23:54;13.10;70.26
75130;HTU21D;63703;44.716;37.846;2023-04-24T06:26:21;13.04;70.54
75130;HTU21D;63703;44.716;37.846;2023-04-24T06:28:48;12.95;70.93
75130;HTU21D;63703;44.716;37.846;2023-04-24T06:31:13;12.85;71.41
75130;HTU21D;63703;44.716;37.846;2023-04-24T06:33:40;12.74;71.77
75130;HTU21D;63703;44.716;37.846;2023-04-24T06:36:06;12.66;72.06
75130;HTU21D;63703;44.716;37.846;2023-04-24T06:38:32;12.59;72.45
75130;HTU21D;63703;44.716;37.846;2023-04-24T06:40:58;12.51;72.82
75130;HTU21D;63703;44.716;37.846;2023-04-24T06:43:24;12.43;73.13
75130;HTU21D;63703;44.716;37.846;2023-04-24T06:45:50;12.38;73.42
75130;HTU21D;63703;44.716;37.846;2023-04-24T06:48:16;12.36;73.75
75130;HTU21D;63703;44.716;37.846;2023-04-24T06:50:42;12.35;74.15
75130;HTU21D;63703;44.716;37.846;2023-04-24T06:53:08;12.37;74.25
75130;HTU21D;63703;44.716;37.846;2023-04-24T06:55:36;12.47;74.39
75130;HTU21D;63703;44.716;37.846;2023-04-24T06:58:02;12.59;74.57
75130;HTU21D;63703;44.716;37.846;2023-04-24T07:00:28;12.72;74.67
75130;HTU21D;63703;44.716;37.846;2023-04-24T07:02:55;12.88;74.64
75130;HTU21D;63703;44.716;37.846;2023-04-24T07:05:23;13.07;74.57
75130;HTU21D;63703;44.716;37.846;2023-04-24T07:07:49;13.25;74.51
75130;HTU21D;63703;44.716;37.846;2023-04-24T07:10:16;13.46;74.48
75130;HTU21D;63703;44.716;37.846;2023-04-24T07:12:41;13.68;74.43
75130;HTU21D;63703;44.716;37.846;2023-04-24T07:15:08;13.90;74.23
75130;HTU21D;63703;44.716;37.846;2023-04-24T07:17:34;14.15;73.84
75130;HTU21D;63703;44.716;37.846;2023-04-24T07:20:04;14.36;73.38
75130;HTU21D;63703;44.716;37.846;2023-04-24T08:06:24;15.73;67.91
75130;HTU21D;63703;44.716;37.846;2023-04-24T08:08:53;15.59;68.04
75130;HTU21D;63703;44.716;37.846;2023-04-24T08:11:19;15.41;68.59
75130;HTU21D;63703;44.716;37.846;2023-04-24T08:13:45;15.25;69.11
75130;HTU21D;63703;44.716;37.846;2023-04-24T08:16:11;15.15;69.51
75130;HTU21D;63703;44.716;37.846;2023-04-24T08:18:37;15.09;69.84
75130;HTU21D;63703;44.716;37.846;2023-04-24T08:21:03;15.07;70.07
75130;HTU21D;63703;44.716;37.846;2023-04-24T08:23:29;15.04;70.28
75130;HTU21D;63703;44.716;37.846;2023-04-24T08:25:55;15.03;70.45
75130;HTU21D;63703;44.716;37.846;2023-04-24T08:28:21;15.02;70.42
75130;HTU21D;63703;44.716;37.846;2023-04-24T08:30:47;14.96;70.37
75130;HTU21D;63703;44.716;37.846;2023-04-24T08:33:16;14.83;70.73
75130;HTU21D;63703;44.716;37.846;2023-04-24T08:35:42;14.73;70.96
75130;HTU21D;63703;44.716;37.846;2023-04-24T08:38:08;14.69;70.90
75130;HTU21D;63703;44.716;37.846;2023-04-24T08:40:34;14.50;71.15
75130;HTU21D;63703;44.716;37.846;2023-04-24T08:43:00;14.37;71.09
75130;HTU21D;63703;44.716;37.846;2023-04-24T08:45:26;14.18;71.38
75130;HTU21D;63703;44.716;37.846;2023-04-24T08:47:53;14.07;71.41
75130;HTU21D;63703;44.716;37.846;2023-04-24T08:50:21;13.96;71.67
75130;HTU21D;63703;44.716;37.846;2023-04-24T08:52:50;13.90;71.86
75130;HTU21D;63703;44.716;37.846;2023-04-24T08:55:16;13.80;72.03
75130;HTU21D;63703;44.716;37.846;2023-04-24T08:57:45;13.73;72.34
75130;HTU21D;63703;44.716;37.846;2023-04-24T09:00:12;13.67;72.61
75130;HTU21D;63703;44.716;37.846;2023-04-24T09:02:52;13.68;73.14
75130;HTU21D;63703;44.716;37.846;2023-04-24T09:05:18;13.63;73.08
75130;HTU21D;63703;44.716;37.846;2023-04-24T09:07:54;13.61;74.02
75130;HTU21D;63703;44.716;37.846;2023-04-24T09:10:22;13.53;73.99
75130;HTU21D;63703;44.716;37.846;2023-04-24T09:12:50;13.47;74.28
75130;HTU21D;63703;44.716;37.846;2023-04-24T09:15:17;13.44;74.56
75130;HTU21D;63703;44.716;37.846;2023-04-24T09:17:44;13.40;74.85
75130;HTU21D;63703;44.716;37.846;2023-04-24T09:20:10;13.39;75.10
75130;HTU21D;63703;44.716;37.846;2023-04-24T09:22:36;13.35;75.45
75130;HTU21D;63703;44.716;37.846;2023-04-24T09:25:05;13.30;76.03
75130;HTU21D;63703;44.716;37.846;2023-04-24T09:27:33;13.23;76.18
75130;HTU21D;63703;44.716;37.846;2023-04-24T09:30:00;13.21;76.44
75130;HTU21D;63703;44.716;37.846;2023-04-24T09:32:26;13.15;76.59
75130;HTU21D;63703;44.716;37.846;2023-04-24T09:35:07;13.15;77.38
75130;HTU21D;63703;44.716;37.846;2023-04-24T09:37:38;13.10;76.89
75130;HTU21D;63703;44.716;37.846;2023-04-24T09:40:18;13.15;77.45
75130;HTU21D;63703;44.716;37.846;2023-04-24T09:42:51;13.12;77.10
75130;HTU21D;63703;44.716;37.846;2023-04-24T09:45:18;13.15;77.17
75130;HTU21D;63703;44.716;37.846;2023-04-24T09:47:43;13.19;77.24
75130;HTU21D;63703;44.716;37.846;2023-04-24T09:50:15;13.22;77.49
75130;HTU21D;63703;44.716;37.846;2023-04-24T09:52:45;13.31;77.37
75130;HTU21D;63703;44.716;37.846;2023-04-24T09:55:19;13.41;77.69
75130;HTU21D;63703;44.716;37.846;2023-04-24T09:57:49;13.50;77.54
75130;HTU21D;63703;44.716;37.846;2023-04-24T10:00:23;13.66;77.71
75130;HTU21D;63703;44.716;37.846;2023-04-24T10:02:51;13.76;77.45
75130;HTU21D;63703;44.716;37.846;2023-04-24T10:05:23;13.88;77.53
75130;HTU21D;63703;44.716;37.846;2023-04-24T10:07:49;13.94;77.44
75130;HTU21D;63703;44.716;37.846;2023-04-24T10:10:16;13.96;77.44
75130;HTU21D;63703;44.716;37.846;2023-04-24T10:12:42;13.97;77.44
75130;HTU21D;63703;44.716;37.846;2023-04-24T10:15:10;13.97;77.45
75130;HTU21D;63703;44.716;37.846;2023-04-24T10:17:39;14.00;77.45
75130;HTU21D;63703;44.716;37.846;2023-04-24T10:20:06;14.03;77.40
75130;HTU21D;63703;44.716;37.846;2023-04-24T10:22:32;14.00;77.46
75130;HTU21D;63703;44.716;37.846;2023-04-24T10:24:59;14.06;77.49
75130;HTU21D;63703;44.716;37.846;2023-04-24T10:27:26;14.14;77.52
75130;HTU21D;63703;44.716;37.846;2023-04-24T10:29:53;14.19;77.51
75130;HTU21D;63703;44.716;37.846;2023-04-24T10:32:19;14.20;77.55
75130;HTU21D;63703;44.716;37.846;2023-04-24T10:34:45;14.22;77.53
75130;HTU21D;63703;44.716;37.846;2023-04-24T10:37:11;14.21;77.58
75130;HTU21D;63703;44.716;37.846;2023-04-24T10:39:39;14.20;77.63
75130;HTU21D;63703;44.716;37.846;2023-04-24T10:42:15;14.22;77.82
75130;HTU21D;63703;44.716;37.846;2023-04-24T10:44:41;14.15;77.69
75130;HTU21D;63703;44.716;37.846;2023-04-24T10:47:13;14.10;77.89
75130;HTU21D;63703;44.716;37.846;2023-04-24T10:49:39;14.09;77.80
75130;HTU21D;63703;44.716;37.846;2023-04-24T10:52:06;14.06;77.82
75130;HTU21D;63703;44.716;37.846;2023-04-24T10:54:45;14.07;78.05
75130;HTU21D;63703;44.716;37.846;2023-04-24T10:59:52;14.12;77.87
75130;HTU21D;63703;44.716;37.846;2023-04-24T11:02:38;14.18;77.87
75130;HTU21D;63703;44.716;37.846;2023-04-24T11:05:06;14.21;77.80
75130;HTU21D;63703;44.716;37.846;2023-04-24T11:08:10;14.30;77.86
75130;HTU21D;63703;44.716;37.846;2023-04-24T11:10:40;14.28;77.63
75130;HTU21D;63703;44.716;37.846;2023-04-24T11:13:07;14.29;77.68
75130;HTU21D;63703;44.716;37.846;2023-04-24T11:15:33;14.27;77.75
75130;HTU21D;63703;44.716;37.846;2023-04-24T11:17:59;14.23;77.78
75130;HTU21D;63703;44.716;37.846;2023-04-24T11:20:25;14.14;77.89
75130;HTU21D;63703;44.716;37.846;2023-04-24T11:22:53;14.07;78.08
75130;HTU21D;63703;44.716;37.846;2023-04-24T11:25:23;14.01;78.17
75130;HTU21D;63703;44.716;37.846;2023-04-24T11:27:50;14.05;78.30
75130;HTU21D;63703;44.716;37.846;2023-04-24T11:30:29;14.01;78.59
75130;HTU21D;63703;44.716;37.846;2023-04-24T11:33:02;13.95;78.96
75130;HTU21D;63703;44.716;37.846;2023-04-24T11:35:29;13.90;78.91
75130;HTU21D;63703;44.716;37.846;2023-04-24T11:37:56;13.90;79.07
75130;HTU21D;63703;44.716;37.846;2023-04-24T11:40:23;13.95;79.10
75130;HTU21D;63703;44.716;37.846;2023-04-24T11:42:50;14.10;79.04
75130;HTU21D;63703;44.716;37.846;2023-04-24T11:45:26;14.25;79.27
75130;HTU21D;63703;44.716;37.846;2023-04-24T11:47:53;14.32;79.05
75130;HTU21D;63703;44.716;37.846;2023-04-24T11:50:21;14.45;78.94
75130;HTU21D;63703;44.716;37.846;2023-04-24T11:52:48;14.64;78.79
75130;HTU21D;63703;44.716;37.846;2023-04-24T11:57:53;14.78;78.75
75130;HTU21D;63703;44.716;37.846;2023-04-24T12:00:25;14.81;78.66
75130;HTU21D;63703;44.716;37.846;2023-04-24T12:03:02;14.78;78.64
75130;HTU21D;63703;44.716;37.846;2023-04-24T12:05:29;14.67;78.63
75130;HTU21D;63703;44.716;37.846;2023-04-24T12:07:57;14.51;78.68
75130;HTU21D;63703;44.716;37.846;2023-04-24T12:10:24;14.36;78.75
75130;HTU21D;63703;44.716;37.846;2023-04-24T12:12:51;14.24;78.79
75130;HTU21D;63703;44.716;37.846;2023-04-24T12:15:19;14.15;78.83
75130;HTU21D;63703;44.716;37.846;2023-04-24T12:17:45;14.05;78.97
75130;HTU21D;63703;44.716;37.846;2023-04-24T12:20:12;13.97;79.04
75130;HTU21D;63703;44.716;37.846;2023-04-24T12:22:52;13.93;79.31
75130;HTU21D;63703;44.716;37.846;2023-04-24T12:25:21;13.77;79.32
75130;HTU21D;63703;44.716;37.846;2023-04-24T12:28:14;13.68;79.67
75130;HTU21D;63703;44.716;37.846;2023-04-24T12:30:41;13.62;79.70
75130;HTU21D;63703;44.716;37.846;2023-04-24T12:33:10;13.54;79.91
75130;HTU21D;63703;44.716;37.846;2023-04-24T12:35:36;13.47;80.19
75130;HTU21D;63703;44.716;37.846;2023-04-24T12:38:10;13.47;80.52
75130;HTU21D;63703;44.716;37.846;2023-04-24T12:40:37;13.50;80.36
75130;HTU21D;63703;44.716;37.846;2023-04-24T12:43:16;13.58;80.76
75130;HTU21D;63703;44.716;37.846;2023-04-24T12:45:42;13.62;80.52
75130;HTU21D;63703;44.716;37.846;2023-04-24T12:48:08;13.63;80.62
75130;HTU21D;63703;44.716;37.846;2023-04-24T12:50:34;13.62;80.74
75130;HTU21D;63703;44.716;37.846;2023-04-24T12:53:00;13.63;80.81
75130;HTU21D;63703;44.716;37.846;2023-04-24T12:55:26;13.62;80.85
75130;HTU21D;63703;44.716;37.846;2023-04-24T12:57:52;13.62;80.88
75130;HTU21D;63703;44.716;37.846;2023-04-24T13:00:19;13.63;80.94
75130;HTU21D;63703;44.716;37.846;2023-04-24T13:02:45;13.62;81.01
75130;HTU21D;63703;44.716;37.846;2023-04-24T13:05:10;13.58;81.12
75130;HTU21D;63703;44.716;37.846;2023-04-24T13:07:39;13.56;81.24
75130;HTU21D;63703;44.716;37.846;2023-04-24T13:10:06;13.51;81.40
75130;HTU21D;63703;44.716;37.846;2023-04-24T13:12:32;13.48;81.49
75130;HTU21D;63703;44.716;37.846;2023-04-24T13:14:58;13.49;81.56
75130;HTU21D;63703;44.716;37.846;2023-04-24T13:17:24;13.49;81.62
75130;HTU21D;63703;44.716;37.846;2023-04-24T13:19:51;13.49;81.65
75130;HTU21D;63703;44.716;37.846;2023-04-24T13:22:18;13.52;81.67
75130;HTU21D;63703;44.716;37.846;2023-04-24T13:24:47;13.50;81.75
75130;HTU21D;63703;44.716;37.846;2023-04-24T13:27:16;13.52;81.75
75130;HTU21D;63703;44.716;37.846;2023-04-24T13:29:42;13.52;81.81
75130;HTU21D;63703;44.716;37.846;2023-04-24T13:32:09;13.51;81.88
75130;HTU21D;63703;44.716;37.846;2023-04-24T13:34:35;13.53;81.86
75130;HTU21D;63703;44.716;37.846;2023-04-24T13:37:01;13.59;81.82
75130;HTU21D;63703;44.716;37.846;2023-04-24T13:39:29;13.59;81.88
75130;HTU21D;63703;44.716;37.846;2023-04-24T13:41:55;13.60;81.97
75130;HTU21D;63703;44.716;37.846;2023-04-24T13:44:22;13.51;82.05
75130;HTU21D;63703;44.716;37.846;2023-04-24T13:46:52;13.49;82.06
75130;HTU21D;63703;44.716;37.846;2023-04-24T13:49:20;13.38;82.15
75130;HTU21D;63703;44.716;37.846;2023-04-24T13:51:47;13.30;82.16
75130;HTU21D;63703;44.716;37.846;2023-04-24T13:54:13;13.22;82.20
75130;HTU21D;63703;44.716;37.846;2023-04-24T13:56:40;13.14;82.31
75130;HTU21D;63703;44.716;37.846;2023-04-24T13:59:06;13.05;82.41
75130;HTU21D;63703;44.716;37.846;2023-04-24T14:01:32;12.99;82.58
75130;HTU21D;63703;44.716;37.846;2023-04-24T14:03:58;12.92;82.73
75130;HTU21D;63703;44.716;37.846;2023-04-24T14:06:24;12.90;82.80
75130;HTU21D;63703;44.716;37.846;2023-04-24T14:08:50;12.91;82.82
75130;HTU21D;63703;44.716;37.846;2023-04-24T14:11:17;12.87;82.94
75130;HTU21D;63703;44.716;37.846;2023-04-24T14:13:44;12.80;83.07
75130;HTU21D;63703;44.716;37.846;2023-04-24T14:16:10;12.75;83.18
75130;HTU21D;63703;44.716;37.846;2023-04-24T14:18:36;12.71;83.23
75130;HTU21D;63703;44.716;37.846;2023-04-24T14:21:03;12.62;83.41
75130;HTU21D;63703;44.716;37.846;2023-04-24T14:23:30;12.52;83.54
75130;HTU21D;63703;44.716;37.846;2023-04-24T14:25:57;12.52;83.53
75130;HTU21D;63703;44.716;37.846;2023-04-24T14:28:23;12.42;83.73
75130;HTU21D;63703;44.716;37.846;2023-04-24T14:30:50;12.40;83.78
75130;HTU21D;63703;44.716;37.846;2023-04-24T14:33:16;12.32;83.94
75130;HTU21D;63703;44.716;37.846;2023-04-24T14:35:42;12.26;84.09
75130;HTU21D;63703;44.716;37.846;2023-04-24T14:38:08;12.19;84.22
75130;HTU21D;63703;44.716;37.846;2023-04-24T14:40:35;12.14;84.45
75130;HTU21D;63703;44.716;37.846;2023-04-24T14:43:01;12.11;84.56
75130;HTU21D;63703;44.716;37.846;2023-04-24T14:45:27;12.07;84.74
75130;HTU21D;63703;44.716;37.846;2023-04-24T14:47:53;12.03;84.91
75130;HTU21D;63703;44.716;37.846;2023-04-24T14:50:20;12.02;85.07
75130;HTU21D;63703;44.716;37.846;2023-04-24T14:52:46;11.99;85.26
75130;HTU21D;63703;44.716;37.846;2023-04-24T14:55:12;11.96;85.38
75130;HTU21D;63703;44.716;37.846;2023-04-24T14:57:38;11.92;85.46
75130;HTU21D;63703;44.716;37.846;2023-04-24T15:00:06;11.93;85.51
75130;HTU21D;63703;44.716;37.846;2023-04-24T15:02:34;11.94;85.55
75130;HTU21D;63703;44.716;37.846;2023-04-24T15:05:02;11.94;85.57
75130;HTU21D;63703;44.716;37.846;2023-04-24T15:07:29;11.92;85.78
75130;HTU21D;63703;44.716;37.846;2023-04-24T15:09:56;11.89;85.93
75130;HTU21D;63703;44.716;37.846;2023-04-24T15:12:22;11.86;86.09
75130;HTU21D;63703;44.716;37.846;2023-04-24T15:14:48;11.81;86.22
75130;HTU21D;63703;44.716;37.846;2023-04-24T15:17:14;11.81;86.25
75130;HTU21D;63703;44.716;37.846;2023-04-24T15:19:40;11.78;86.27
75130;HTU21D;63703;44.716;37.846;2023-04-24T15:22:06;11.78;86.28
75130;HTU21D;63703;44.716;37.846;2023-04-24T15:24:32;11.77;86.36
75130;HTU21D;63703;44.716;37.846;2023-04-24T15:26:59;11.74;86.47
75130;HTU21D;63703;44.716;37.846;2023-04-24T15:29:25;11.74;86.47
75130;HTU21D;63703;44.716;37.846;2023-04-24T15:31:52;11.73;86.46
75130;HTU21D;63703;44.716;37.846;2023-04-24T15:34:18;11.72;86.51
75130;HTU21D;63703;44.716;37.846;2023-04-24T15:36:44;11.72;86.53
75130;HTU21D;63703;44.716;37.846;2023-04-24T15:39:10;11.72;86.55
75130;HTU21D;63703;44.716;37.846;2023-04-24T15:41:37;11.74;86.46
75130;HTU21D;63703;44.716;37.846;2023-04-24T15:44:03;11.72;86.51
75130;HTU21D;63703;44.716;37.846;2023-04-24T15:46:29;11.68;86.67
75130;HTU21D;63703;44.716;37.846;2023-04-24T15:48:55;11.68;86.67
75130;HTU21D;63703;44.716;37.846;2023-04-24T15:51:21;11.68;86.65
75130;HTU21D;63703;44.716;37.846;2023-04-24T15:53:48;11.64;86.81
75130;HTU21D;63703;44.716;37.846;2023-04-24T15:56:14;11.62;86.89